Pagrindinis puslapis
METAR-TAF:

METAR-TAF

Oro uostai :

Washington, Virdžinija, Jungtinės Amerikos Valstijos

platuma: 38-56-05N, ilguma: 077-26-51W, Aukštis: 95 m

Dabartinis oras

Ataskaita buvo paskelbta 1 valandą ir 4 minutes, ne 12:52 UTC
Vėjas 5 kt iš Šiaurės/Šiaurės Vakarų
Temperatūra 0°C
Drėgmė 59%
Slėgis 1029 hPa
Matomumas: 16.1 km
Išsisklaidę debesys ne aukštis 25000 ft

METAR: KIAD 071252Z 33005KT 10SM SCT250 00/M07 A3038 RMK AO2 SLP290 T00001067

Laikas: 08:56 (13:56 UTC)

Prognozė

Ataskaita buvo paskelbta 2 valandos ir 28 minutes, ne 11:28 UTC
Prognozė galioja nuo 07 metu 12 UTC su 08 metu 18 UTC
Vėjas 6 kt iš Šiaurės/Šiaurės Vakarų
Matomumas: 10 km
Mažai debesys ne aukštis 25000 ft
Nuo 07 metu 2100 UTC
Vėjas 3 kt nuo kintamojo kryptimis
Matomumas: 10 km
Mažai debesys ne aukštis 25000 ft

TAF: KIAD 071128Z 0712/0818 34006KT P6SM FEW250 FM072100 VRB03KT P6SM FEW250

Orai ataskaitas ir orų prognozės (METAR, TAF).

turimą stotys yra geltonos ir raudonos taškus žemėlapyje.

Perkelti pele per norėdami pamatyti stoties vardą.

Tada spustelėkite, norėdami matyti oro stebėjimo ir prognozės.

Norėdami pakeisti žemėlapį: spustelėkite ant žalios mygtukų su juodo kryžiaus žemyn,; žalią mygtuką su brūkšneliu, jei norite nutolinti; arba žalių rodyklių gretimoms žemėlapius.


METAR-TAF: